»·PEaware :: JAS250 KGSP-MYEM

JAS250 :: KGSP-MYEM

FLIGHT INFORMATION

Flight Status: Arrived
Operator:
Japan Air System
More flights by this operator :: More flights under this callsign
Pilot: Andrew J. (13363)
Aircraft: BOMBARDIER BD-100 CHALLENGER 300
(CL30)
More flights by this aircraft type
Origin: KGSP Greenville-Spartanburg Intl
United States
Destination: MYEM Governors Harbour
Bahamas
More flights between these airports :: More routes between these airports
Route: BIMMR1 ACERB CHS NUCAR/N0468F400 AR3 ANGLL/N0467F410 MAMML
File this flight plan on PilotEdge
Remarks: PBN / D1 NAV / RNVD1E2A1 DOF / 180427 REG / N350SB EET / KZMA0000 KZJX0015 OPR / JAS PER / C RMK / TCAS SIMBRIEF
Altitude:
(Current/Filed)
41,000ft
Speed:
(Current/Filed)
468kts
Departed: 26-Apr-18 09:01 PM
Arrived: 26-Apr-18 10:34 PM
Distance/Time
Traveled:
653nm/1:33
Distance/Time
To Go:
Arrived

Flight Plot

Page will automatically refresh every two minutes.

Flight plan parsing failed; only flown route is shown


Map Options




Map Legend


Flown Route
Filed Route
Departure Airport
Arrival Airport
Navaid (VOR, NDB)
Fix

Horizontal Profiles

Position Reports

Time Latitude Longitude Heading Altitude Ground
Speed
26-Apr-18 20:59 34.710996 -81.926415 138 17248ft 387kts
26-Apr-18 21:00 34.631159 -81.834684 141 20247ft 405kts
26-Apr-18 21:01 34.546392 -81.743042 143 22841ft 421kts
26-Apr-18 21:02 34.457359 -81.648378 145 25164ft 433kts
26-Apr-18 21:03 34.365344 -81.551341 144 26873ft 453kts
26-Apr-18 21:04 34.270124 -81.451129 144 28868ft 456kts
26-Apr-18 21:05 34.174357 -81.350711 144 30655ft 460kts
26-Apr-18 21:06 34.079989 -81.252071 145 32301ft 459kts
26-Apr-18 21:07 33.984557 -81.152620 146 34051ft 453kts
26-Apr-18 21:08 33.891974 -81.056436 146 35774ft 443kts
26-Apr-18 21:09 33.799507 -80.960720 147 36887ft 447kts
26-Apr-18 21:10 33.703361 -80.861481 146 36892ft 466kts
26-Apr-18 21:11 33.603630 -80.758793 146 36890ft 479kts
26-Apr-18 21:12 33.502662 -80.655162 146 36891ft 484kts
26-Apr-18 21:13 33.400620 -80.550769 146 36891ft 484kts
26-Apr-18 21:14 33.298383 -80.446520 146 36892ft 484kts
26-Apr-18 21:15 33.197418 -80.343893 147 36889ft 482kts
26-Apr-18 21:16 33.095988 -80.241135 147 36879ft 477kts
26-Apr-18 21:17 32.996129 -80.140260 147 36906ft 471kts
26-Apr-18 21:18 32.897884 -80.045409 157 36878ft 457kts
26-Apr-18 21:19 32.785990 -79.981133 163 36887ft 447kts
26-Apr-18 21:20 32.673527 -79.920598 164 37115ft 439kts
26-Apr-18 21:21 32.563521 -79.862208 165 38607ft 431kts
26-Apr-18 21:22 32.452474 -79.803651 165 38893ft 451kts
26-Apr-18 21:23 32.335192 -79.741934 164 38893ft 474kts
26-Apr-18 21:24 32.215102 -79.678848 164 38888ft 471kts
26-Apr-18 21:25 32.096353 -79.616687 164 38887ft 466kts
26-Apr-18 21:26 31.978592 -79.555231 164 38887ft 461kts
26-Apr-18 21:27 31.862821 -79.494988 165 38896ft 457kts
26-Apr-18 21:28 31.747620 -79.435215 165 38896ft 453kts
26-Apr-18 21:29 31.632811 -79.375794 165 38896ft 450kts
26-Apr-18 21:30 31.519238 -79.317172 165 38880ft 446kts
26-Apr-18 21:31 31.406496 -79.259130 165 38880ft 441kts
26-Apr-18 21:32 31.295277 -79.202029 166 38880ft 437kts
26-Apr-18 21:33 31.184522 -79.145316 166 38880ft 435kts
26-Apr-18 21:34 31.074077 -79.088901 166 38881ft 432kts
26-Apr-18 21:35 30.964579 -79.033113 166 38881ft 431kts
26-Apr-18 21:36 30.856915 -78.978398 166 38889ft 430kts
26-Apr-18 21:37 30.747687 -78.923026 166 38889ft 432kts
26-Apr-18 21:38 30.637601 -78.867356 166 38889ft 433kts
26-Apr-18 21:39 30.527624 -78.811871 166 38942ft 433kts
26-Apr-18 21:40 30.417284 -78.756354 166 38890ft 436kts
26-Apr-18 21:41 30.306725 -78.700850 166 38943ft 436kts
26-Apr-18 21:42 30.195633 -78.645224 166 38943ft 437kts
26-Apr-18 21:43 30.084640 -78.589781 166 38971ft 437kts
26-Apr-18 21:44 29.972947 -78.534128 166 38971ft 438kts
26-Apr-18 21:45 29.862117 -78.479042 166 38979ft 439kts
26-Apr-18 21:46 29.750017 -78.423465 166 38979ft 441kts
26-Apr-18 21:47 29.656184 -78.377043 166 38979ft 443kts
26-Apr-18 21:48 29.545164 -78.322209 167 39672ft 433kts
26-Apr-18 21:49 29.419266 -78.260240 167 40961ft 420kts
26-Apr-18 21:50 29.311899 -78.207530 167 40963ft 423kts
26-Apr-18 21:51 29.203443 -78.154392 167 40963ft 428kts
26-Apr-18 21:52 29.093562 -78.100675 166 40963ft 432kts
26-Apr-18 21:53 29.001578 -78.055803 166 40963ft 436kts
26-Apr-18 21:54 28.890701 -78.001829 166 40966ft 439kts
26-Apr-18 21:55 28.778170 -77.947177 166 40970ft 443kts
26-Apr-18 21:56 28.664875 -77.892264 167 40971ft 445kts
26-Apr-18 21:57 28.551107 -77.837286 167 40970ft 446kts
26-Apr-18 21:58 28.436847 -77.782189 167 40970ft 446kts
26-Apr-18 21:59 28.323070 -77.727463 167 40997ft 446kts
26-Apr-18 22:00 28.209208 -77.672806 167 40998ft 446kts
26-Apr-18 22:01 28.094363 -77.634603 184 41002ft 420kts
26-Apr-18 22:02 27.978352 -77.625332 186 40997ft 418kts
26-Apr-18 22:03 27.863736 -77.618218 186 41002ft 418kts
26-Apr-18 22:04 27.748078 -77.611543 187 40982ft 420kts
26-Apr-18 22:05 27.631309 -77.604898 187 40975ft 421kts
26-Apr-18 22:06 27.514944 -77.598316 187 41001ft 421kts
26-Apr-18 22:07 27.398442 -77.591750 187 41001ft 422kts
26-Apr-18 22:08 27.281569 -77.585179 187 40973ft 423kts
26-Apr-18 22:09 27.164476 -77.578608 187 40972ft 423kts
26-Apr-18 22:10 27.047041 -77.572038 186 40805ft 428kts
26-Apr-18 22:11 26.927918 -77.522277 161 39365ft 483kts
26-Apr-18 22:12 26.811797 -77.449169 160 37678ft 488kts
26-Apr-18 22:13 26.693709 -77.374228 159 35973ft 488kts
26-Apr-18 22:14 26.576585 -77.299924 158 34186ft 484kts
26-Apr-18 22:15 26.460362 -77.226340 158 32286ft 475kts
26-Apr-18 22:16 26.348565 -77.155675 158 30252ft 452kts
26-Apr-18 22:17 26.241598 -77.088247 158 28219ft 434kts
26-Apr-18 22:18 26.139201 -77.023850 158 26197ft 417kts
26-Apr-18 22:19 26.038344 -76.960602 158 23932ft 422kts
26-Apr-18 22:20 25.935796 -76.896368 158 21427ft 427kts
26-Apr-18 22:21 25.840809 -76.836960 158 19121ft 421kts
26-Apr-18 22:22 25.740496 -76.774335 159 16645ft 406kts
26-Apr-18 22:23 25.644748 -76.714701 159 14178ft 390kts
26-Apr-18 22:24 25.552288 -76.657094 157 11700ft 376kts
26-Apr-18 22:25 25.478934 -76.573143 140 9237ft 374kts
26-Apr-18 22:26 25.412530 -76.491027 138 6746ft 332kts
26-Apr-18 22:27 25.352696 -76.434171 185 4092ft 248kts
26-Apr-18 22:28 25.345673 -76.483331 338 2685ft 235kts
26-Apr-18 22:29 25.376801 -76.440737 90 2058ft 188kts
26-Apr-18 22:30 25.362508 -76.392892 136 1959ft 161kts
26-Apr-18 22:31 25.330482 -76.366308 149 1011ft 139kts
26-Apr-18 22:32 25.299147 -76.342244 146 215ft 137kts
26-Apr-18 22:33 25.278375 -76.326108 143 37ft 24kts
26-Apr-18 22:34 25.278714 -76.324010 108 43ft 6kts
26-Apr-18 22:35 25.278508 -76.323784 144 42ft 0kts
26-Apr-18 22:36 25.278508 -76.323784 144 42ft 0kts

Navigation Log

Ident Type
Flight plan parsing failed, navigation log unavailable